Skip Navigation LinksHome page > Weather > Current weather Skip Navigation Links

Current Weather

Chicago O'Hare Intl, Chicago

For information only: do not use for flight planning or navigation.
Latest weather
Observation time Tuesday, October 19, 2021 3:51 PM CDT
Local time Tuesday, October 19, 2021 4:37 PM CDT
Flight conditions Visual Meteorological Conditions
Winds
Wind direction Southwest (220°)
Wind speed 14 mph
Wind gusting to 23 mph
Visibility 10 mi.
Sky condition
Ceiling unlimited
Cloud layer few clouds 8,000 ft.
Cloud layer few clouds 25,000 ft.
Temperature 71°F
Dewpoint 44°F
Altimeter 30.04 in.Hg
Pressure change last 3 hours0.04 in.Hg
Pressure falling more slowly
Derived measurements
Relative humidity 38%
Density altitude 1458 ft.
Sea-level pressure 30.04 in.Hg
Remarks
Automated weather observing station with precipitation discriminator.
METAR KORD 192051Z 22012G20KT 10SM FEW080 FEW250 22/07 A3004 RMK AO2 SLP172 T02170067 56014

Settings

Location code

InnerDrive.Weather 4.0.6770.0 Release CLR 4.0.30319.42000
Copyright ©2018 Inner Drive Technology. All rights reserved. Portions Copyright ©1986-2018 David Braverman.

Find weather

Site navigation


Skip Navigation Links

Place info

Page info

PayPal - The safer, easier way to pay online!

Return home.

Copyright ©2021 Inner Drive Technology. Purveyors of fine, hand-crafted computer software. Page printed 2021-10-19T21:37:55 UTC.